Aviation Digital Data Service (ADDS)

Output produced by METARs form (2221 UTC 24 March 2019)
found at http://www.aviationweather.gov/metar/data/
 
LMML 242215Z 30005KT 8000 FEW011 12/11 Q1021 NOSIG
TAF LMML 241700Z 2418/2518 32010KT 9999 FEW012 
     PROB40 2420/2506 7000